createdAt,value
2023-05-10T00:01:19.694Z,99795.00
2023-05-10T00:03:47.078Z,99803.00
2023-05-10T00:06:14.468Z,99793.00
2023-05-10T00:08:41.813Z,99788.00
2023-05-10T00:11:09.917Z,99796.00
2023-05-10T00:13:37.234Z,99791.00
2023-05-10T00:16:05.025Z,99782.00
2023-05-10T00:18:32.428Z,99787.00
2023-05-10T00:20:59.859Z,99775.00
2023-05-10T00:23:27.223Z,99774.00
2023-05-10T00:25:54.564Z,99783.00
2023-05-10T00:28:23.698Z,99778.00
2023-05-10T00:30:51.021Z,99784.00
2023-05-10T00:33:18.586Z,99774.00
2023-05-10T00:35:45.935Z,99774.00
2023-05-10T00:38:13.312Z,99766.00
2023-05-10T00:40:40.686Z,99764.00
2023-05-10T00:43:08.019Z,99766.00
2023-05-10T00:45:38.102Z,99763.00
2023-05-10T00:48:06.435Z,99761.00
2023-05-10T00:50:34.604Z,99761.00
2023-05-10T00:53:03.229Z,99762.00
2023-05-10T00:55:31.113Z,99753.00
2023-05-10T00:57:58.464Z,99754.00
2023-05-10T01:00:26.153Z,99760.00
2023-05-10T01:02:55.025Z,99761.00
2023-05-10T01:05:22.602Z,99749.00
2023-05-10T01:07:49.917Z,99763.00
2023-05-10T01:10:17.613Z,99757.00
2023-05-10T01:12:47.052Z,99741.00
2023-05-10T01:15:15.239Z,99738.00
2023-05-10T01:17:45.303Z,99761.00
2023-05-10T01:20:14.654Z,99744.00
2023-05-10T01:23:04.138Z,99738.00
2023-05-10T01:25:49.373Z,99737.00
2023-05-10T01:28:39.193Z,99734.00
2023-05-10T01:31:31.036Z,99735.00
2023-05-10T01:34:03.084Z,99730.00
2023-05-10T01:36:34.177Z,99725.00
2023-05-10T01:39:07.499Z,99725.00
2023-05-10T01:41:46.557Z,99722.00
2023-05-10T01:44:21.300Z,99732.00
2023-05-10T01:46:53.871Z,99735.00
2023-05-10T01:49:24.734Z,99724.00
2023-05-10T01:51:55.206Z,99727.00
2023-05-10T01:54:24.348Z,99732.00
2023-05-10T01:56:57.510Z,99730.00
2023-05-10T01:59:32.330Z,99733.00
2023-05-10T02:02:02.083Z,99727.00
2023-05-10T02:04:30.589Z,99740.00
2023-05-10T02:06:58.676Z,99725.00
2023-05-10T02:09:28.640Z,99732.00
2023-05-10T02:11:58.869Z,99730.00
2023-05-10T02:14:28.208Z,99724.00
2023-05-10T02:16:56.829Z,99723.00
2023-05-10T02:19:25.974Z,99724.00
2023-05-10T02:21:55.057Z,99719.00
2023-05-10T02:24:25.217Z,99711.00
2023-05-10T02:26:54.486Z,99717.00
2023-05-10T02:29:23.619Z,99712.00
2023-05-10T02:31:53.511Z,99705.00
2023-05-10T02:34:22.447Z,99702.00
2023-05-10T02:36:50.585Z,99701.00
2023-05-10T02:39:21.471Z,99705.00
2023-05-10T02:41:50.770Z,99707.00
2023-05-10T02:44:20.290Z,99709.00
2023-05-10T02:46:48.223Z,99700.00
2023-05-10T02:49:16.039Z,99703.00
2023-05-10T02:51:51.638Z,99709.00
2023-05-10T02:54:23.260Z,99710.00
2023-05-10T02:56:57.092Z,99716.00
2023-05-10T02:59:24.563Z,99712.00
2023-05-10T03:01:52.048Z,99702.00
2023-05-10T03:04:19.595Z,99709.00
2023-05-10T03:06:47.291Z,99707.00
2023-05-10T03:09:15.805Z,99712.00
2023-05-10T03:12:01.975Z,99709.00
2023-05-10T03:14:43.333Z,99701.00
2023-05-10T03:17:15.810Z,99699.00
2023-05-10T03:19:50.096Z,99693.00
2023-05-10T03:22:25.960Z,99697.00
2023-05-10T03:24:57.141Z,99707.00
2023-05-10T03:27:26.913Z,99703.00
2023-05-10T03:32:32.178Z,99712.00
2023-05-10T03:34:59.493Z,99712.00
2023-05-10T03:37:26.816Z,99708.00
2023-05-10T03:39:54.159Z,99714.00
2023-05-10T03:42:21.494Z,99717.00
2023-05-10T03:44:50.246Z,99718.00
2023-05-10T03:47:17.690Z,99719.00
2023-05-10T03:49:45.030Z,99726.00
2023-05-10T03:52:12.685Z,99727.00
2023-05-10T03:54:40.073Z,99729.00
2023-05-10T03:57:07.475Z,99722.00
2023-05-10T03:59:34.873Z,99711.00
2023-05-10T04:02:03.118Z,99717.00
2023-05-10T04:04:30.621Z,99715.00
2023-05-10T04:06:58.082Z,99715.00
2023-05-10T04:09:25.644Z,99726.00
2023-05-10T04:11:52.948Z,99712.00
2023-05-10T04:14:20.301Z,99717.00
2023-05-10T04:16:47.728Z,99708.00
2023-05-10T04:19:15.820Z,99709.00
2023-05-10T04:21:43.097Z,99707.00
2023-05-10T04:24:10.441Z,99708.00
2023-05-10T04:26:37.760Z,99697.00
2023-05-10T04:29:05.096Z,99708.00
2023-05-10T04:31:32.749Z,99718.00
2023-05-10T04:34:00.119Z,99709.00
2023-05-10T04:36:28.253Z,99708.00
2023-05-10T04:38:55.594Z,99717.00
2023-05-10T04:41:22.960Z,99716.00
2023-05-10T04:43:50.441Z,99717.00
2023-05-10T04:46:17.867Z,99715.00
2023-05-10T04:48:45.355Z,99718.00
2023-05-10T04:51:12.906Z,99725.00
2023-05-10T04:53:43.012Z,99736.00
2023-05-10T04:56:12.015Z,99730.00
2023-05-10T04:58:39.795Z,99738.00
2023-05-10T05:01:07.961Z,99733.00
2023-05-10T05:03:35.444Z,99731.00
2023-05-10T05:06:03.030Z,99728.00
2023-05-10T05:08:30.322Z,99741.00
2023-05-10T05:10:58.320Z,99745.00
2023-05-10T05:13:25.761Z,99746.00
2023-05-10T05:15:53.738Z,99742.00
2023-05-10T05:18:21.102Z,99741.00
2023-05-10T05:20:48.423Z,99747.00
2023-05-10T05:23:15.748Z,99752.00
2023-05-10T05:25:43.028Z,99757.00
2023-05-10T05:28:11.106Z,99750.00
2023-05-10T05:30:38.497Z,99745.00
2023-05-10T05:33:05.878Z,99754.00
2023-05-10T05:35:33.836Z,99744.00
2023-05-10T05:38:01.360Z,99750.00
2023-05-10T05:40:28.670Z,99751.00
2023-05-10T05:42:56.056Z,99751.00
2023-05-10T05:45:24.114Z,99754.00
2023-05-10T05:47:51.486Z,99756.00
2023-05-10T05:50:19.066Z,99749.00
2023-05-10T05:52:46.426Z,99750.00
2023-05-10T05:55:13.860Z,99753.00
2023-05-10T05:57:41.168Z,99759.00
2023-05-10T06:00:09.414Z,99767.00
2023-05-10T06:02:37.711Z,99758.00
2023-05-10T06:05:05.931Z,99758.00
2023-05-10T06:07:33.215Z,99760.00
2023-05-10T06:10:00.752Z,99763.00
2023-05-10T06:12:28.023Z,99762.00
2023-05-10T06:14:55.358Z,99757.00
2023-05-10T06:17:22.733Z,99765.00
2023-05-10T06:19:50.786Z,99759.00
2023-05-10T06:22:18.196Z,99757.00
2023-05-10T06:24:45.573Z,99761.00
2023-05-10T06:27:12.857Z,99762.00
2023-05-10T06:29:40.204Z,99760.00
2023-05-10T06:32:07.478Z,99762.00
2023-05-10T06:34:34.806Z,99766.00
2023-05-10T06:37:03.813Z,99770.00
2023-05-10T06:39:31.186Z,99768.00
2023-05-10T06:41:58.508Z,99765.00
2023-05-10T06:44:25.808Z,99759.00
2023-05-10T06:46:54.061Z,99763.00
2023-05-10T06:49:21.405Z,99758.00
2023-05-10T06:51:49.382Z,99763.00
2023-05-10T06:54:18.114Z,99755.00
2023-05-10T06:56:45.454Z,99761.00
2023-05-10T06:59:13.882Z,99759.00
2023-05-10T07:01:41.205Z,99763.00
2023-05-10T07:04:08.820Z,99753.00
2023-05-10T07:06:36.336Z,99758.00
2023-05-10T07:09:03.766Z,99757.00
2023-05-10T07:11:31.765Z,99756.00
2023-05-10T07:13:59.060Z,99756.00
2023-05-10T07:16:26.580Z,99756.00
2023-05-10T07:18:54.481Z,99747.00
2023-05-10T07:21:24.166Z,99756.00
2023-05-10T07:23:51.911Z,99746.00
2023-05-10T07:26:19.706Z,99741.00
2023-05-10T07:28:48.763Z,99745.00
2023-05-10T07:31:16.118Z,99745.00
2023-05-10T07:33:43.499Z,99741.00
2023-05-10T07:36:10.842Z,99746.00
2023-05-10T07:38:40.851Z,99752.00
2023-05-10T07:41:08.308Z,99751.00
2023-05-10T07:43:35.697Z,99750.00
2023-05-10T07:46:03.727Z,99746.00
2023-05-10T07:48:31.573Z,99745.00
2023-05-10T07:50:58.850Z,99749.00
2023-05-10T07:53:26.939Z,99751.00
2023-05-10T07:55:58.703Z,99745.00
2023-05-10T07:58:26.382Z,99747.00
2023-05-10T08:00:54.292Z,99750.00
2023-05-10T08:03:22.894Z,99743.00
2023-05-10T08:05:50.517Z,99749.00
2023-05-10T08:08:18.088Z,99743.00
2023-05-10T08:10:45.672Z,99743.00
2023-05-10T08:13:13.013Z,99739.00
2023-05-10T08:15:40.351Z,99742.00
2023-05-10T08:18:08.268Z,99745.00
2023-05-10T08:20:36.633Z,99750.00
2023-05-10T08:23:03.928Z,99744.00
2023-05-10T08:25:31.999Z,99746.00
2023-05-10T08:27:59.674Z,99751.00
2023-05-10T08:30:27.040Z,99755.00
2023-05-10T08:32:54.486Z,99760.00
2023-05-10T08:35:22.270Z,99754.00
2023-05-10T08:37:51.338Z,99764.00
2023-05-10T08:40:21.149Z,99752.00
2023-05-10T08:42:53.559Z,99760.00
2023-05-10T08:45:23.845Z,99756.00
2023-05-10T08:47:52.524Z,99757.00
2023-05-10T08:50:22.578Z,99761.00
2023-05-10T08:52:53.547Z,99759.00
2023-05-10T08:55:21.006Z,99758.00
2023-05-10T08:57:48.700Z,99775.00
2023-05-10T09:00:18.070Z,99773.00
2023-05-10T09:02:46.326Z,99776.00
2023-05-10T09:05:16.803Z,99785.00
2023-05-10T09:07:44.912Z,99779.00
2023-05-10T09:10:26.473Z,99786.00
2023-05-10T09:13:08.502Z,99780.00
2023-05-10T09:16:02.272Z,99789.00
2023-05-10T09:25:21.152Z,99792.00
2023-05-10T09:27:56.604Z,99796.00
2023-05-10T10:05:53.482Z,99784.00
2023-05-10T10:08:22.146Z,99787.00
2023-05-10T10:10:52.680Z,99789.00
2023-05-10T10:13:20.306Z,99790.00
2023-05-10T10:15:51.332Z,99791.00
2023-05-10T10:18:23.797Z,99791.00
2023-05-10T10:20:53.012Z,99791.00
2023-05-10T10:23:21.213Z,99786.00
2023-05-10T10:25:49.192Z,99785.00
2023-05-10T10:28:26.125Z,99785.00
2023-05-10T10:31:00.203Z,99787.00
2023-05-10T10:33:41.133Z,99787.00
2023-05-10T10:36:08.920Z,99787.00
2023-05-10T10:38:59.774Z,99782.00
2023-05-10T10:41:33.450Z,99788.00
2023-05-10T10:44:35.785Z,99787.00
2023-05-10T10:47:09.723Z,99784.00
2023-05-10T10:49:44.194Z,99798.00
2023-05-10T10:52:23.512Z,99789.00
2023-05-10T10:54:59.193Z,99796.00
2023-05-10T10:57:27.187Z,99787.00
2023-05-10T11:00:23.309Z,99794.00
2023-05-10T11:02:52.394Z,99790.00
2023-05-10T11:05:34.689Z,99785.00
2023-05-10T11:08:07.854Z,99791.00
2023-05-10T11:10:36.330Z,99788.00
2023-05-10T11:13:06.359Z,99788.00
2023-05-10T11:15:35.029Z,99785.00
2023-05-10T11:18:18.959Z,99794.00
2023-05-10T11:20:51.944Z,99787.00
2023-05-10T11:23:20.338Z,99788.00
2023-05-10T11:25:50.270Z,99788.00
2023-05-10T11:28:19.680Z,99786.00
2023-05-10T11:30:47.724Z,99786.00
2023-05-10T11:33:21.382Z,99799.00
2023-05-10T11:35:48.744Z,99796.00
2023-05-10T11:38:16.232Z,99802.00
2023-05-10T11:40:43.954Z,99798.00
2023-05-10T11:43:12.393Z,99804.00
2023-05-10T11:45:40.774Z,99802.00
2023-05-10T11:48:08.213Z,99799.00
2023-05-10T11:50:35.729Z,99799.00
2023-05-10T11:53:03.588Z,99802.00
2023-05-10T11:55:34.045Z,99807.00
2023-05-10T11:58:03.659Z,99804.00
2023-05-10T12:00:33.639Z,99818.00
2023-05-10T12:03:02.982Z,99810.00
2023-05-10T12:05:34.223Z,99818.00
2023-05-10T12:08:15.429Z,99821.00
2023-05-10T12:10:43.407Z,99817.00
2023-05-10T12:13:15.594Z,99826.00
2023-05-10T12:15:44.497Z,99833.00
2023-05-10T12:18:12.846Z,99831.00
2023-05-10T12:20:41.572Z,99828.00
2023-05-10T12:23:11.073Z,99839.00
2023-05-10T12:25:40.221Z,99846.00
2023-05-10T12:28:09.480Z,99844.00
2023-05-10T12:30:39.382Z,99850.00
2023-05-10T12:33:11.930Z,99838.00
2023-05-10T12:35:47.628Z,99849.00
2023-05-10T12:38:31.315Z,99855.00
2023-05-10T12:41:00.508Z,99853.00
2023-05-10T12:43:28.424Z,99852.00
2023-05-10T12:45:56.417Z,99843.00
2023-05-10T12:48:25.526Z,99858.00
2023-05-10T12:50:53.815Z,99856.00
2023-05-10T12:53:22.991Z,99867.00
2023-05-10T12:55:51.296Z,99873.00
2023-05-10T12:58:34.335Z,99874.00
2023-05-10T13:01:03.433Z,99868.00
2023-05-10T13:03:32.548Z,99878.00
2023-05-10T13:06:00.089Z,99874.00
2023-05-10T13:08:30.284Z,99873.00
2023-05-10T13:10:57.932Z,99881.00
2023-05-10T13:13:25.960Z,99874.00
2023-05-10T13:15:53.707Z,99880.00
2023-05-10T13:18:22.541Z,99882.00
2023-05-10T13:20:52.089Z,99876.00
2023-05-10T13:23:19.870Z,99875.00
2023-05-10T13:25:47.378Z,99889.00
2023-05-10T13:28:15.301Z,99880.00
2023-05-10T13:30:43.249Z,99877.00
2023-05-10T13:33:11.300Z,99885.00
2023-05-10T13:35:39.304Z,99888.00
2023-05-10T13:38:08.668Z,99882.00
2023-05-10T13:40:36.735Z,99876.00
2023-05-10T13:43:04.477Z,99878.00
2023-05-10T13:45:32.157Z,99880.00
2023-05-10T13:48:00.300Z,99877.00
2023-05-10T13:50:28.349Z,99884.00
2023-05-10T13:52:55.962Z,99877.00
2023-05-10T13:55:24.416Z,99872.00
2023-05-10T13:57:52.179Z,99880.00
2023-05-10T14:00:19.936Z,99878.00
2023-05-10T14:02:47.402Z,99882.00
2023-05-10T14:05:15.100Z,99887.00
2023-05-10T14:07:43.338Z,99879.00
2023-05-10T14:10:11.203Z,99888.00
2023-05-10T14:12:39.595Z,99880.00
2023-05-10T14:15:08.172Z,99882.00
2023-05-10T14:17:35.850Z,99879.00
2023-05-10T14:20:04.183Z,99879.00
2023-05-10T14:22:31.921Z,99878.00
2023-05-10T14:25:00.122Z,99877.00
2023-05-10T14:27:27.986Z,99871.00
2023-05-10T14:29:57.060Z,99874.00
2023-05-10T14:32:24.645Z,99864.00
2023-05-10T14:34:52.886Z,99863.00
2023-05-10T14:37:20.927Z,99871.00
2023-05-10T14:39:49.433Z,99869.00
2023-05-10T14:42:17.193Z,99863.00
2023-05-10T14:44:44.989Z,99875.00
2023-05-10T14:47:13.329Z,99873.00
2023-05-10T14:49:41.243Z,99876.00
2023-05-10T14:52:08.781Z,99870.00
2023-05-10T14:54:36.150Z,99874.00
2023-05-10T14:57:03.533Z,99879.00
2023-05-10T14:59:30.882Z,99873.00
2023-05-10T15:01:58.680Z,99875.00
2023-05-10T15:04:28.538Z,99877.00
2023-05-10T15:06:59.420Z,99877.00
2023-05-10T15:09:27.805Z,99870.00
2023-05-10T15:11:55.135Z,99874.00
2023-05-10T15:14:22.676Z,99875.00
2023-05-10T15:16:49.967Z,99865.00
2023-05-10T15:19:17.291Z,99876.00
2023-05-10T15:21:45.349Z,99878.00
2023-05-10T15:24:12.663Z,99879.00
2023-05-10T15:26:40.712Z,99878.00
2023-05-10T15:29:08.074Z,99879.00
2023-05-10T15:31:36.313Z,99875.00
2023-05-10T15:34:03.730Z,99879.00
2023-05-10T15:36:32.509Z,99876.00
2023-05-10T15:39:01.078Z,99884.00
2023-05-10T15:41:29.163Z,99879.00
2023-05-10T15:43:56.678Z,99876.00
2023-05-10T15:46:24.130Z,99878.00
2023-05-10T15:48:51.586Z,99883.00
2023-05-10T15:51:19.261Z,99884.00
2023-05-10T15:54:00.449Z,99883.00
2023-05-10T15:56:34.399Z,99881.00
2023-05-10T15:59:01.902Z,99889.00
2023-05-10T16:01:30.152Z,99892.00
2023-05-10T16:03:57.502Z,99895.00
2023-05-10T16:06:25.212Z,99895.00
2023-05-10T16:08:54.125Z,99897.00
2023-05-10T16:11:22.366Z,99904.00
2023-05-10T16:13:51.054Z,99908.00
2023-05-10T16:16:18.660Z,99899.00
2023-05-10T16:18:46.427Z,99912.00
2023-05-10T16:21:14.081Z,99905.00
2023-05-10T16:23:41.669Z,99906.00
2023-05-10T16:26:09.032Z,99900.00
2023-05-10T16:28:37.146Z,99909.00
2023-05-10T16:31:05.572Z,99907.00
2023-05-10T16:33:33.016Z,99913.00
2023-05-10T16:36:00.598Z,99909.00
2023-05-10T16:38:28.288Z,99924.00
2023-05-10T16:40:56.919Z,99927.00
2023-05-10T16:43:26.091Z,99917.00
2023-05-10T16:45:54.264Z,99925.00
2023-05-10T16:48:23.302Z,99934.00
2023-05-10T16:50:50.957Z,99925.00
2023-05-10T16:53:18.497Z,99930.00
2023-05-10T16:55:46.070Z,99926.00
2023-05-10T16:58:13.466Z,99924.00
2023-05-10T17:00:40.836Z,99935.00
2023-05-10T17:03:08.337Z,99938.00
2023-05-10T17:05:36.543Z,99935.00
2023-05-10T17:08:04.042Z,99937.00
2023-05-10T17:10:31.577Z,99948.00
2023-05-10T17:12:58.915Z,99938.00
2023-05-10T17:15:26.332Z,99941.00
2023-05-10T17:17:54.055Z,99942.00
2023-05-10T17:20:21.966Z,99946.00
2023-05-10T17:22:50.177Z,99943.00
2023-05-10T17:25:17.788Z,99953.00
2023-05-10T17:27:45.325Z,99950.00
2023-05-10T17:30:13.773Z,99954.00
2023-05-10T17:32:41.219Z,99949.00
2023-05-10T17:35:09.179Z,99955.00
2023-05-10T17:37:36.772Z,99957.00
2023-05-10T17:40:07.228Z,99965.00
2023-05-10T17:42:34.953Z,99962.00
2023-05-10T17:45:03.109Z,99965.00
2023-05-10T17:47:30.876Z,99959.00
2023-05-10T17:49:58.920Z,99964.00
2023-05-10T17:52:26.327Z,99967.00
2023-05-10T17:54:53.858Z,99963.00
2023-05-10T17:57:23.048Z,99969.00
2023-05-10T17:59:50.640Z,99967.00
2023-05-10T18:02:18.303Z,99964.00
2023-05-10T18:04:46.251Z,99970.00
2023-05-10T18:07:14.029Z,99970.00
2023-05-10T18:09:41.535Z,99969.00
2023-05-10T18:12:08.864Z,99972.00
2023-05-10T18:14:40.967Z,99973.00
2023-05-10T18:17:10.189Z,99979.00
2023-05-10T18:19:37.685Z,99968.00
2023-05-10T18:22:05.010Z,99981.00
2023-05-10T18:27:03.226Z,99987.00
2023-05-10T18:29:30.833Z,99979.00
2023-05-10T18:31:59.046Z,99981.00
2023-05-10T18:34:26.428Z,99989.00
2023-05-10T18:36:53.877Z,99996.00
2023-05-10T18:39:21.196Z,99983.00
2023-05-10T18:41:49.598Z,99988.00
2023-05-10T18:44:18.109Z,99993.00
2023-05-10T18:46:45.590Z,99992.00
2023-05-10T18:49:13.856Z,99983.00
2023-05-10T18:51:41.184Z,99992.00
2023-05-10T18:54:08.572Z,100002.00
2023-05-10T18:56:36.280Z,99992.00
2023-05-10T18:59:03.644Z,99996.00
2023-05-10T19:01:31.031Z,100004.00
2023-05-10T19:03:58.394Z,99995.00
2023-05-10T19:06:26.452Z,100008.00
2023-05-10T19:08:53.792Z,100005.00
2023-05-10T19:11:21.617Z,100006.00
2023-05-10T19:13:49.066Z,100013.00
2023-05-10T19:16:20.077Z,100018.00
2023-05-10T19:18:48.040Z,100021.00
2023-05-10T19:21:17.480Z,100022.00
2023-05-10T19:23:45.492Z,100017.00
2023-05-10T19:26:12.960Z,100024.00
2023-05-10T19:28:40.372Z,100031.00
2023-05-10T19:31:08.501Z,100027.00
2023-05-10T19:33:38.336Z,100033.00
2023-05-10T19:36:08.584Z,100033.00
2023-05-10T19:38:36.197Z,100039.00
2023-05-10T19:41:04.600Z,100039.00
2023-05-10T19:43:34.330Z,100025.00
2023-05-10T19:46:02.733Z,100030.00
2023-05-10T19:48:30.887Z,100040.00
2023-05-10T19:51:00.965Z,100036.00
2023-05-10T19:53:28.524Z,100023.00
2023-05-10T19:55:56.050Z,100028.00
2023-05-10T19:58:24.602Z,100028.00
2023-05-10T20:00:52.263Z,100031.00
2023-05-10T20:03:19.696Z,100037.00
2023-05-10T20:05:47.100Z,100034.00
2023-05-10T20:08:14.483Z,100036.00
2023-05-10T20:10:41.923Z,100040.00
2023-05-10T20:13:09.456Z,100040.00
2023-05-10T20:15:37.633Z,100045.00
2023-05-10T20:18:05.239Z,100035.00
2023-05-10T20:20:32.877Z,100034.00
2023-05-10T20:23:00.432Z,100032.00
2023-05-10T20:25:27.874Z,100041.00
2023-05-10T20:27:55.155Z,100039.00
2023-05-10T20:30:23.134Z,100036.00
2023-05-10T20:32:51.212Z,100044.00
2023-05-10T20:35:18.703Z,100040.00
2023-05-10T20:37:47.896Z,100027.00
2023-05-10T20:40:15.508Z,100040.00
2023-05-10T20:42:43.102Z,100041.00
2023-05-10T20:45:11.306Z,100039.00
2023-05-10T20:47:39.096Z,100039.00
2023-05-10T20:50:08.720Z,100036.00
2023-05-10T20:52:36.111Z,100041.00
2023-05-10T20:55:04.110Z,100040.00
2023-05-10T20:57:31.747Z,100036.00
2023-05-10T20:59:59.375Z,100032.00
2023-05-10T21:02:27.385Z,100036.00
2023-05-10T21:04:57.123Z,100033.00
2023-05-10T21:07:26.098Z,100041.00
2023-05-10T21:09:53.403Z,100036.00
2023-05-10T21:12:20.781Z,100033.00
2023-05-10T21:14:48.254Z,100030.00
2023-05-10T21:17:16.213Z,100032.00
2023-05-10T21:19:44.344Z,100029.00
2023-05-10T21:22:11.909Z,100030.00
2023-05-10T21:24:40.272Z,100036.00
2023-05-10T21:27:08.486Z,100034.00
2023-05-10T21:29:36.163Z,100040.00
2023-05-10T21:32:03.707Z,100038.00
2023-05-10T21:34:31.134Z,100038.00
2023-05-10T21:36:58.692Z,100036.00
2023-05-10T21:39:26.028Z,100033.00
2023-05-10T21:41:54.568Z,100040.00
2023-05-10T21:44:21.886Z,100042.00
2023-05-10T21:46:49.344Z,100040.00
2023-05-10T21:49:16.680Z,100043.00
2023-05-10T21:51:44.073Z,100045.00
2023-05-10T21:54:11.340Z,100043.00
2023-05-10T21:56:38.684Z,100043.00
2023-05-10T21:59:07.036Z,100038.00
2023-05-10T22:01:34.544Z,100045.00
2023-05-10T22:04:01.951Z,100043.00
2023-05-10T22:06:29.286Z,100047.00
2023-05-10T22:09:10.570Z,100049.00
2023-05-10T22:11:48.096Z,100047.00
2023-05-10T22:14:34.191Z,100054.00
2023-05-10T22:17:02.162Z,100045.00
2023-05-10T22:19:36.302Z,100044.00
2023-05-10T22:22:12.884Z,100046.00
2023-05-10T22:24:50.452Z,100044.00
2023-05-10T22:27:27.096Z,100046.00
2023-05-10T22:30:14.089Z,100038.00
2023-05-10T22:32:56.642Z,100041.00
2023-05-10T22:35:30.529Z,100040.00
2023-05-10T22:38:12.276Z,100041.00
2023-05-10T22:40:48.997Z,100041.00
2023-05-10T22:43:22.608Z,100040.00
2023-05-10T22:46:02.648Z,100042.00
2023-05-10T22:48:44.399Z,100038.00
2023-05-10T22:51:15.895Z,100045.00
2023-05-10T22:53:48.065Z,100042.00
2023-05-10T22:56:31.566Z,100037.00
2023-05-10T22:59:11.927Z,100042.00
2023-05-10T23:01:51.508Z,100043.00
2023-05-10T23:04:52.095Z,100041.00
2023-05-10T23:07:35.189Z,100042.00
2023-05-10T23:10:19.318Z,100033.00
2023-05-10T23:12:49.347Z,100041.00
2023-05-10T23:15:26.895Z,100045.00
2023-05-10T23:18:05.183Z,100041.00
2023-05-10T23:20:52.142Z,100042.00
2023-05-10T23:23:41.446Z,100042.00
2023-05-10T23:26:15.566Z,100047.00
2023-05-10T23:29:01.367Z,100050.00
2023-05-10T23:31:33.500Z,100052.00
2023-05-10T23:34:08.032Z,100046.00
2023-05-10T23:36:45.926Z,100045.00
2023-05-10T23:39:27.727Z,100041.00
2023-05-10T23:41:56.006Z,100036.00
2023-05-10T23:44:35.803Z,100038.00
2023-05-10T23:47:09.023Z,100037.00
2023-05-10T23:49:37.930Z,100034.00
2023-05-10T23:52:16.362Z,100032.00
2023-05-10T23:54:46.724Z,100029.00
2023-05-10T23:57:14.466Z,100039.00
2023-05-10T23:59:47.906Z,100033.00
